Virginville, Pennsylvania
Current Conditions -  °F | °C
As of 9:54 AM on Tuesday 21 Oct 2014 (Local Time) from KRDG Reporting Station
Overcast Overcast  
Wind Chill: 56°   Ceiling: 7000
Heat Index: 56°   Visibility: 10mi
Dew Point: 51°   Wind: 0mph
Humidity: 84%   Direction: NA
Pressure: 29.87"   Gusts: NA
Location:  40.52°N, 75.87°W
Report Text: KRDG 211354Z 00000KT 10SM FEW007 BKN070 OVC085 13/11 A2987 RMK AO2 SLP121 T01330106
Loading
Personal Weather Stations






























Interactive Weather Map
Tropical Storm Tracking
New forecast layout! Learn more

10-Day Weather Forecast

Advertisements
Track Severe Weather on mobile